createdAt,value
2017-09-30T00:03:11.140Z,0
2017-09-30T00:13:10.887Z,0
2017-09-30T00:23:10.866Z,0
2017-09-30T00:33:11.481Z,0
2017-09-30T00:43:10.909Z,0
2017-09-30T00:53:10.868Z,0
2017-09-30T01:03:10.907Z,0
2017-09-30T01:13:10.891Z,0
2017-09-30T01:23:10.820Z,0
2017-09-30T01:33:10.907Z,0
2017-09-30T01:43:10.865Z,0
2017-09-30T01:53:10.936Z,0
2017-09-30T02:03:10.896Z,0
2017-09-30T02:13:10.865Z,0
2017-09-30T02:23:10.934Z,0
2017-09-30T02:33:10.867Z,0
2017-09-30T02:43:10.960Z,0
2017-09-30T02:53:10.881Z,0
2017-09-30T03:03:10.976Z,0
2017-09-30T03:13:10.905Z,0
2017-09-30T03:23:10.918Z,0
2017-09-30T03:33:10.942Z,0
2017-09-30T03:43:10.932Z,0
2017-09-30T03:53:10.959Z,0
2017-09-30T04:03:11.075Z,0
2017-09-30T04:13:11.011Z,0
2017-09-30T04:23:10.968Z,0
2017-09-30T04:33:11.022Z,0
2017-09-30T04:43:11.000Z,0
2017-09-30T04:53:11.067Z,0
2017-09-30T05:03:10.990Z,0
2017-09-30T05:13:11.076Z,12
2017-09-30T05:23:11.026Z,52
2017-09-30T05:33:11.041Z,148
2017-09-30T05:43:11.081Z,308
2017-09-30T05:53:11.088Z,552
2017-09-30T06:03:11.088Z,916
2017-09-30T06:13:11.154Z,1364
2017-09-30T06:23:11.091Z,1688
2017-09-30T06:33:11.148Z,2500
2017-09-30T06:43:11.114Z,2768
2017-09-30T06:53:11.174Z,3828
2017-09-30T07:03:11.133Z,4792
2017-09-30T07:13:11.161Z,5940
2017-09-30T07:23:11.193Z,4760
2017-09-30T07:33:11.129Z,4324
2017-09-30T07:43:11.202Z,4680
2017-09-30T07:53:11.138Z,3520
2017-09-30T08:03:11.244Z,2692
2017-09-30T08:13:11.152Z,2212
2017-09-30T08:23:11.218Z,1740
2017-09-30T08:33:11.191Z,2192
2017-09-30T08:43:11.235Z,7804
2017-09-30T08:53:11.501Z,9716
2017-09-30T09:03:11.264Z,5960
2017-09-30T09:13:11.227Z,4372
2017-09-30T09:23:13.436Z,5728
2017-09-30T09:33:11.349Z,7948
2017-09-30T09:43:11.332Z,7760
2017-09-30T09:53:11.292Z,9244
2017-09-30T10:03:16.274Z,6596
2017-09-30T10:13:11.489Z,8524
2017-09-30T10:23:30.513Z,10688
2017-09-30T10:33:59.752Z,9176
2017-09-30T10:43:59.954Z,11300
2017-09-30T10:53:52.268Z,9116
2017-09-30T11:03:57.167Z,8964
2017-09-30T11:13:58.371Z,8892
2017-09-30T11:23:54.313Z,4404
2017-09-30T11:33:57.488Z,5044
2017-09-30T11:43:57.888Z,5444
2017-09-30T11:53:58.517Z,5056
2017-09-30T12:03:59.925Z,6252
2017-09-30T12:13:59.548Z,1932
2017-09-30T12:24:02.383Z,1384
2017-09-30T12:33:42.750Z,1356
2017-09-30T12:44:01.269Z,2780
2017-09-30T12:54:00.040Z,2628
2017-09-30T13:04:02.692Z,2992
2017-09-30T13:14:00.142Z,2140
2017-09-30T13:23:38.215Z,3108
2017-09-30T13:33:59.530Z,3536
2017-09-30T13:44:02.091Z,1948
2017-09-30T13:53:55.172Z,1904
2017-09-30T14:03:59.891Z,2056
2017-09-30T14:13:58.581Z,3512
2017-09-30T14:23:58.701Z,1948
2017-09-30T14:34:01.799Z,1384
2017-09-30T14:44:02.600Z,1432
2017-09-30T14:53:59.091Z,1204
2017-09-30T15:03:40.156Z,1388
2017-09-30T15:13:52.120Z,1740
2017-09-30T15:23:58.885Z,1492
2017-09-30T15:33:53.347Z,560
2017-09-30T15:44:02.222Z,768
2017-09-30T15:53:47.188Z,1784
2017-09-30T16:03:54.610Z,1716
2017-09-30T16:13:35.841Z,1012
2017-09-30T16:23:48.923Z,856
2017-09-30T16:33:59.649Z,700
2017-09-30T16:43:39.638Z,620
2017-09-30T16:54:00.814Z,316
2017-09-30T17:04:02.163Z,152
2017-09-30T17:13:47.685Z,44
2017-09-30T17:24:00.895Z,8
2017-09-30T17:34:00.685Z,4
2017-09-30T17:44:01.619Z,0
2017-09-30T17:54:02.585Z,0
2017-09-30T18:04:01.904Z,0
2017-09-30T18:13:58.131Z,0
2017-09-30T18:23:57.669Z,0
2017-09-30T18:34:01.472Z,0
2017-09-30T18:44:00.933Z,0
2017-09-30T18:53:58.273Z,0
2017-09-30T19:03:59.615Z,0
2017-09-30T19:14:00.400Z,0
2017-09-30T19:24:02.338Z,0
2017-09-30T19:34:04.292Z,0
2017-09-30T19:43:58.005Z,0
2017-09-30T19:54:00.049Z,0
2017-09-30T20:03:58.498Z,0
2017-09-30T20:13:54.108Z,0
2017-09-30T20:23:55.762Z,0
2017-09-30T20:33:58.686Z,0
2017-09-30T20:43:59.731Z,0
2017-09-30T20:54:01.060Z,0
2017-09-30T21:03:31.461Z,0
2017-09-30T21:13:59.756Z,0
2017-09-30T21:24:02.486Z,0
2017-09-30T21:34:01.760Z,0
2017-09-30T21:44:01.178Z,0
2017-09-30T21:53:45.861Z,0
2017-09-30T22:04:00.960Z,0
2017-09-30T22:13:59.852Z,0
2017-09-30T22:24:01.477Z,0
2017-09-30T22:33:58.814Z,0
2017-09-30T22:44:02.321Z,0
2017-09-30T22:54:01.242Z,0
2017-09-30T23:03:57.373Z,0
2017-09-30T23:13:11.390Z,0
2017-09-30T23:23:11.406Z,0
2017-09-30T23:33:11.426Z,0
2017-09-30T23:43:11.416Z,0
2017-09-30T23:53:11.451Z,0
